sensor_id;sensor_type;location;lat;lon;timestamp;temperature;humidity
26254;DHT22;53339;51.378;0.094;2023-11-21T00:00:27;10.40;90.50
26254;DHT22;53339;51.378;0.094;2023-11-21T00:02:55;10.40;90.50
26254;DHT22;53339;51.378;0.094;2023-11-21T00:05:23;10.50;90.50
26254;DHT22;53339;51.378;0.094;2023-11-21T00:07:51;10.50;90.50
26254;DHT22;53339;51.378;0.094;2023-11-21T00:10:19;10.50;90.40
26254;DHT22;53339;51.378;0.094;2023-11-21T00:12:46;10.50;90.40
26254;DHT22;53339;51.378;0.094;2023-11-21T00:15:15;10.60;90.40
26254;DHT22;53339;51.378;0.094;2023-11-21T00:17:44;10.60;90.40
26254;DHT22;53339;51.378;0.094;2023-11-21T00:20:12;10.60;90.30
26254;DHT22;53339;51.378;0.094;2023-11-21T00:22:43;10.60;90.20
26254;DHT22;53339;51.378;0.094;2023-11-21T00:25:11;10.60;90.20
26254;DHT22;53339;51.378;0.094;2023-11-21T00:27:41;10.60;90.10
26254;DHT22;53339;51.378;0.094;2023-11-21T00:30:09;10.60;90.10
26254;DHT22;53339;51.378;0.094;2023-11-21T00:32:38;10.50;90.10
26254;DHT22;53339;51.378;0.094;2023-11-21T00:35:06;10.50;90.10
26254;DHT22;53339;51.378;0.094;2023-11-21T00:37:34;10.50;90.20
26254;DHT22;53339;51.378;0.094;2023-11-21T00:40:02;10.50;90.30
26254;DHT22;53339;51.378;0.094;2023-11-21T00:42:34;10.50;90.40
26254;DHT22;53339;51.378;0.094;2023-11-21T00:45:03;10.50;90.40
26254;DHT22;53339;51.378;0.094;2023-11-21T00:47:31;10.50;90.50
26254;DHT22;53339;51.378;0.094;2023-11-21T00:49:59;10.50;90.50
26254;DHT22;53339;51.378;0.094;2023-11-21T00:52:27;10.50;90.50
26254;DHT22;53339;51.378;0.094;2023-11-21T00:54:55;10.60;90.60
26254;DHT22;53339;51.378;0.094;2023-11-21T00:57:22;10.60;90.50
26254;DHT22;53339;51.378;0.094;2023-11-21T00:59:50;10.60;90.60
26254;DHT22;53339;51.378;0.094;2023-11-21T01:02:21;10.60;90.60
26254;DHT22;53339;51.378;0.094;2023-11-21T01:04:49;10.60;90.60
26254;DHT22;53339;51.378;0.094;2023-11-21T01:07:17;10.70;90.60
26254;DHT22;53339;51.378;0.094;2023-11-21T01:09:48;10.60;90.60
26254;DHT22;53339;51.378;0.094;2023-11-21T01:12:18;10.60;90.60
26254;DHT22;53339;51.378;0.094;2023-11-21T01:14:46;10.60;90.60
26254;DHT22;53339;51.378;0.094;2023-11-21T01:17:14;10.60;90.60
26254;DHT22;53339;51.378;0.094;2023-11-21T01:19:42;10.70;90.60
26254;DHT22;53339;51.378;0.094;2023-11-21T01:22:10;10.60;90.60
26254;DHT22;53339;51.378;0.094;2023-11-21T01:24:39;10.70;90.60
26254;DHT22;53339;51.378;0.094;2023-11-21T01:27:07;10.70;90.60
26254;DHT22;53339;51.378;0.094;2023-11-21T01:29:36;10.70;90.60
26254;DHT22;53339;51.378;0.094;2023-11-21T01:32:05;10.70;90.60
26254;DHT22;53339;51.378;0.094;2023-11-21T01:34:35;10.70;90.60
26254;DHT22;53339;51.378;0.094;2023-11-21T01:37:04;10.70;90.70
26254;DHT22;53339;51.378;0.094;2023-11-21T01:39:33;10.70;90.60
26254;DHT22;53339;51.378;0.094;2023-11-21T01:42:00;10.70;90.70
26254;DHT22;53339;51.378;0.094;2023-11-21T01:44:28;10.70;90.70
26254;DHT22;53339;51.378;0.094;2023-11-21T01:46:57;10.70;90.70
26254;DHT22;53339;51.378;0.094;2023-11-21T01:49:25;10.70;90.60
26254;DHT22;53339;51.378;0.094;2023-11-21T01:51:53;10.70;90.70
26254;DHT22;53339;51.378;0.094;2023-11-21T01:54:22;10.70;90.70
26254;DHT22;53339;51.378;0.094;2023-11-21T01:56:50;10.70;90.70
26254;DHT22;53339;51.378;0.094;2023-11-21T01:59:21;10.70;90.80
26254;DHT22;53339;51.378;0.094;2023-11-21T02:01:50;10.80;90.70
26254;DHT22;53339;51.378;0.094;2023-11-21T02:04:19;10.80;90.70
26254;DHT22;53339;51.378;0.094;2023-11-21T02:06:49;10.80;90.70
26254;DHT22;53339;51.378;0.094;2023-11-21T02:09:28;10.80;90.80
26254;DHT22;53339;51.378;0.094;2023-11-21T02:11:57;10.80;90.80
26254;DHT22;53339;51.378;0.094;2023-11-21T02:14:26;10.80;90.80
26254;DHT22;53339;51.378;0.094;2023-11-21T02:16:55;10.80;90.70
26254;DHT22;53339;51.378;0.094;2023-11-21T02:19:25;10.90;90.80
26254;DHT22;53339;51.378;0.094;2023-11-21T02:21:59;10.80;90.70
26254;DHT22;53339;51.378;0.094;2023-11-21T02:24:31;10.90;90.70
26254;DHT22;53339;51.378;0.094;2023-11-21T02:26:59;10.90;90.70
26254;DHT22;53339;51.378;0.094;2023-11-21T02:29:27;10.90;90.70
26254;DHT22;53339;51.378;0.094;2023-11-21T02:31:56;10.90;90.70
26254;DHT22;53339;51.378;0.094;2023-11-21T02:34:24;10.90;90.70
26254;DHT22;53339;51.378;0.094;2023-11-21T02:36:54;10.90;90.60
26254;DHT22;53339;51.378;0.094;2023-11-21T02:39:23;10.90;90.60
26254;DHT22;53339;51.378;0.094;2023-11-21T02:41:52;10.90;90.60
26254;DHT22;53339;51.378;0.094;2023-11-21T02:44:20;10.90;90.60
26254;DHT22;53339;51.378;0.094;2023-11-21T02:46:47;10.90;90.60
26254;DHT22;53339;51.378;0.094;2023-11-21T02:49:15;10.90;90.50
26254;DHT22;53339;51.378;0.094;2023-11-21T02:51:43;10.90;90.50
26254;DHT22;53339;51.378;0.094;2023-11-21T02:54:11;10.90;90.50
26254;DHT22;53339;51.378;0.094;2023-11-21T02:56:39;10.90;90.50
26254;DHT22;53339;51.378;0.094;2023-11-21T02:59:07;10.90;90.50
26254;DHT22;53339;51.378;0.094;2023-11-21T03:01:35;10.90;90.50
26254;DHT22;53339;51.378;0.094;2023-11-21T03:04:03;10.90;90.50
26254;DHT22;53339;51.378;0.094;2023-11-21T03:06:31;10.90;90.50
26254;DHT22;53339;51.378;0.094;2023-11-21T03:08:59;10.90;90.50
26254;DHT22;53339;51.378;0.094;2023-11-21T03:11:27;10.80;90.60
26254;DHT22;53339;51.378;0.094;2023-11-21T03:13:54;10.90;90.50
26254;DHT22;53339;51.378;0.094;2023-11-21T03:16:22;10.90;90.50
26254;DHT22;53339;51.378;0.094;2023-11-21T03:18:50;10.90;90.50
26254;DHT22;53339;51.378;0.094;2023-11-21T03:21:18;10.90;90.50
26254;DHT22;53339;51.378;0.094;2023-11-21T03:23:46;10.90;90.50
26254;DHT22;53339;51.378;0.094;2023-11-21T03:26:14;10.80;90.50
26254;DHT22;53339;51.378;0.094;2023-11-21T03:28:42;10.80;90.50
26254;DHT22;53339;51.378;0.094;2023-11-21T03:31:11;10.80;90.50
26254;DHT22;53339;51.378;0.094;2023-11-21T03:33:39;10.80;90.50
26254;DHT22;53339;51.378;0.094;2023-11-21T03:36:07;10.80;90.50
26254;DHT22;53339;51.378;0.094;2023-11-21T03:38:38;10.70;90.50
26254;DHT22;53339;51.378;0.094;2023-11-21T03:41:06;10.70;90.50
26254;DHT22;53339;51.378;0.094;2023-11-21T03:43:35;10.70;90.60
26254;DHT22;53339;51.378;0.094;2023-11-21T03:46:03;10.70;90.60
26254;DHT22;53339;51.378;0.094;2023-11-21T03:48:31;10.60;90.60
26254;DHT22;53339;51.378;0.094;2023-11-21T03:51:01;10.60;90.70
26254;DHT22;53339;51.378;0.094;2023-11-21T03:53:29;10.60;90.70
26254;DHT22;53339;51.378;0.094;2023-11-21T03:55:57;10.60;90.70
26254;DHT22;53339;51.378;0.094;2023-11-21T03:58:25;10.60;90.80
26254;DHT22;53339;51.378;0.094;2023-11-21T04:00:53;10.60;90.80
26254;DHT22;53339;51.378;0.094;2023-11-21T04:03:21;10.60;90.80
26254;DHT22;53339;51.378;0.094;2023-11-21T04:05:49;10.50;90.90
26254;DHT22;53339;51.378;0.094;2023-11-21T04:08:17;10.50;90.90
26254;DHT22;53339;51.378;0.094;2023-11-21T04:10:45;10.50;90.90
26254;DHT22;53339;51.378;0.094;2023-11-21T04:13:13;10.50;90.90
26254;DHT22;53339;51.378;0.094;2023-11-21T04:15:41;10.50;90.90
26254;DHT22;53339;51.378;0.094;2023-11-21T04:18:08;10.50;90.90
26254;DHT22;53339;51.378;0.094;2023-11-21T04:20:36;10.50;91.00
26254;DHT22;53339;51.378;0.094;2023-11-21T04:23:04;10.50;91.00
26254;DHT22;53339;51.378;0.094;2023-11-21T04:25:32;10.40;91.00
26254;DHT22;53339;51.378;0.094;2023-11-21T04:28:00;10.40;91.00
26254;DHT22;53339;51.378;0.094;2023-11-21T04:30:28;10.40;90.90
26254;DHT22;53339;51.378;0.094;2023-11-21T04:32:56;10.30;90.90
26254;DHT22;53339;51.378;0.094;2023-11-21T04:35:24;10.30;90.90
26254;DHT22;53339;51.378;0.094;2023-11-21T04:37:52;10.30;90.90
26254;DHT22;53339;51.378;0.094;2023-11-21T04:40:21;10.20;91.00
26254;DHT22;53339;51.378;0.094;2023-11-21T04:42:49;10.30;91.00
26254;DHT22;53339;51.378;0.094;2023-11-21T04:45:17;10.30;91.00
26254;DHT22;53339;51.378;0.094;2023-11-21T04:47:46;10.20;91.00
26254;DHT22;53339;51.378;0.094;2023-11-21T04:50:14;10.20;91.10
26254;DHT22;53339;51.378;0.094;2023-11-21T04:52:41;10.20;91.10
26254;DHT22;53339;51.378;0.094;2023-11-21T04:55:10;10.20;91.20
26254;DHT22;53339;51.378;0.094;2023-11-21T04:57:38;10.20;91.20
26254;DHT22;53339;51.378;0.094;2023-11-21T05:00:09;10.30;91.20
26254;DHT22;53339;51.378;0.094;2023-11-21T05:02:41;10.20;91.20
26254;DHT22;53339;51.378;0.094;2023-11-21T05:05:09;10.30;91.20
26254;DHT22;53339;51.378;0.094;2023-11-21T05:07:39;10.30;91.20
26254;DHT22;53339;51.378;0.094;2023-11-21T05:10:08;10.30;91.10
26254;DHT22;53339;51.378;0.094;2023-11-21T05:12:41;10.30;91.10
26254;DHT22;53339;51.378;0.094;2023-11-21T05:15:11;10.30;91.10
26254;DHT22;53339;51.378;0.094;2023-11-21T05:17:41;10.30;91.00
26254;DHT22;53339;51.378;0.094;2023-11-21T05:20:13;10.20;91.00
26254;DHT22;53339;51.378;0.094;2023-11-21T05:22:46;10.20;91.00
26254;DHT22;53339;51.378;0.094;2023-11-21T05:25:14;10.20;91.00
26254;DHT22;53339;51.378;0.094;2023-11-21T05:27:42;10.20;91.00
26254;DHT22;53339;51.378;0.094;2023-11-21T05:30:10;10.20;91.00
26254;DHT22;53339;51.378;0.094;2023-11-21T05:32:40;10.20;91.00
26254;DHT22;53339;51.378;0.094;2023-11-21T05:35:12;10.20;91.00
26254;DHT22;53339;51.378;0.094;2023-11-21T05:37:47;10.10;91.00
26254;DHT22;53339;51.378;0.094;2023-11-21T05:40:15;10.10;91.00
26254;DHT22;53339;51.378;0.094;2023-11-21T05:42:44;10.10;90.90
26254;DHT22;53339;51.378;0.094;2023-11-21T05:45:12;10.10;91.00
26254;DHT22;53339;51.378;0.094;2023-11-21T05:47:42;10.10;91.00
26254;DHT22;53339;51.378;0.094;2023-11-21T05:50:12;10.10;91.10
26254;DHT22;53339;51.378;0.094;2023-11-21T05:52:44;10.10;91.10
26254;DHT22;53339;51.378;0.094;2023-11-21T05:55:13;10.10;91.10
26254;DHT22;53339;51.378;0.094;2023-11-21T05:57:42;10.00;91.10
26254;DHT22;53339;51.378;0.094;2023-11-21T06:00:12;10.00;91.10
26254;DHT22;53339;51.378;0.094;2023-11-21T06:03:00;10.00;91.10
26254;DHT22;53339;51.378;0.094;2023-11-21T06:05:28;10.00;91.10
26254;DHT22;53339;51.378;0.094;2023-11-21T06:07:56;10.00;91.10
26254;DHT22;53339;51.378;0.094;2023-11-21T06:10:28;10.00;91.10
26254;DHT22;53339;51.378;0.094;2023-11-21T06:12:56;10.00;91.10
26254;DHT22;53339;51.378;0.094;2023-11-21T06:15:27;10.00;91.00
26254;DHT22;53339;51.378;0.094;2023-11-21T06:17:56;9.90;90.90
26254;DHT22;53339;51.378;0.094;2023-11-21T06:20:24;9.80;90.80
26254;DHT22;53339;51.378;0.094;2023-11-21T06:22:52;9.90;90.90
26254;DHT22;53339;51.378;0.094;2023-11-21T06:25:21;9.90;91.00
26254;DHT22;53339;51.378;0.094;2023-11-21T06:27:50;9.90;90.90
26254;DHT22;53339;51.378;0.094;2023-11-21T06:30:19;9.80;90.80
26254;DHT22;53339;51.378;0.094;2023-11-21T06:32:48;9.80;90.80
26254;DHT22;53339;51.378;0.094;2023-11-21T06:35:17;9.80;90.90
26254;DHT22;53339;51.378;0.094;2023-11-21T06:37:45;9.80;90.80
26254;DHT22;53339;51.378;0.094;2023-11-21T06:40:16;9.70;90.80
26254;DHT22;53339;51.378;0.094;2023-11-21T06:42:46;9.80;90.70
26254;DHT22;53339;51.378;0.094;2023-11-21T06:45:18;9.80;90.70
26254;DHT22;53339;51.378;0.094;2023-11-21T06:47:46;9.70;90.50
26254;DHT22;53339;51.378;0.094;2023-11-21T06:50:14;9.70;90.40
26254;DHT22;53339;51.378;0.094;2023-11-21T06:52:42;9.70;90.40
26254;DHT22;53339;51.378;0.094;2023-11-21T06:55:10;9.70;90.40
26254;DHT22;53339;51.378;0.094;2023-11-21T06:57:38;9.70;90.20
26254;DHT22;53339;51.378;0.094;2023-11-21T07:00:07;9.70;90.10
26254;DHT22;53339;51.378;0.094;2023-11-21T07:02:37;9.70;90.10
26254;DHT22;53339;51.378;0.094;2023-11-21T07:05:06;9.70;90.20
26254;DHT22;53339;51.378;0.094;2023-11-21T07:07:34;9.60;90.10
26254;DHT22;53339;51.378;0.094;2023-11-21T07:10:04;9.60;90.10
26254;DHT22;53339;51.378;0.094;2023-11-21T07:12:33;9.60;90.10
26254;DHT22;53339;51.378;0.094;2023-11-21T07:15:02;9.60;90.20
26254;DHT22;53339;51.378;0.094;2023-11-21T07:17:30;9.60;90.20
26254;DHT22;53339;51.378;0.094;2023-11-21T07:19:59;9.40;90.10
26254;DHT22;53339;51.378;0.094;2023-11-21T07:22:27;9.40;90.20
26254;DHT22;53339;51.378;0.094;2023-11-21T07:24:56;9.40;90.30
26254;DHT22;53339;51.378;0.094;2023-11-21T07:27:26;9.40;90.40
26254;DHT22;53339;51.378;0.094;2023-11-21T07:29:54;9.30;90.20
26254;DHT22;53339;51.378;0.094;2023-11-21T07:32:25;9.30;90.30
26254;DHT22;53339;51.378;0.094;2023-11-21T07:34:53;9.30;90.40
26254;DHT22;53339;51.378;0.094;2023-11-21T07:37:21;9.30;90.40
26254;DHT22;53339;51.378;0.094;2023-11-21T07:39:48;9.30;90.40
26254;DHT22;53339;51.378;0.094;2023-11-21T07:42:16;9.20;90.30
26254;DHT22;53339;51.378;0.094;2023-11-21T07:44:45;9.20;90.40
26254;DHT22;53339;51.378;0.094;2023-11-21T07:47:14;9.20;90.40
26254;DHT22;53339;51.378;0.094;2023-11-21T07:49:41;9.20;90.30
26254;DHT22;53339;51.378;0.094;2023-11-21T07:52:11;9.10;90.40
26254;DHT22;53339;51.378;0.094;2023-11-21T07:54:39;9.10;90.40
26254;DHT22;53339;51.378;0.094;2023-11-21T07:57:07;9.10;90.50
26254;DHT22;53339;51.378;0.094;2023-11-21T07:59:35;9.10;90.40
26254;DHT22;53339;51.378;0.094;2023-11-21T08:02:03;8.90;90.20
26254;DHT22;53339;51.378;0.094;2023-11-21T08:04:30;8.80;90.10
26254;DHT22;53339;51.378;0.094;2023-11-21T08:07:01;8.70;90.10
26254;DHT22;53339;51.378;0.094;2023-11-21T08:09:29;8.70;90.30
26254;DHT22;53339;51.378;0.094;2023-11-21T08:11:57;8.70;90.50
26254;DHT22;53339;51.378;0.094;2023-11-21T08:14:25;8.70;90.60
26254;DHT22;53339;51.378;0.094;2023-11-21T08:16:52;8.70;90.60
26254;DHT22;53339;51.378;0.094;2023-11-21T08:19:24;8.70;90.70
26254;DHT22;53339;51.378;0.094;2023-11-21T08:21:54;8.70;90.80
26254;DHT22;53339;51.378;0.094;2023-11-21T08:24:23;8.70;90.90
26254;DHT22;53339;51.378;0.094;2023-11-21T08:26:50;8.80;90.90
26254;DHT22;53339;51.378;0.094;2023-11-21T08:29:20;8.80;90.90
26254;DHT22;53339;51.378;0.094;2023-11-21T08:31:48;8.80;90.80
26254;DHT22;53339;51.378;0.094;2023-11-21T08:34:16;8.90;90.90
26254;DHT22;53339;51.378;0.094;2023-11-21T08:36:44;8.90;91.00
26254;DHT22;53339;51.378;0.094;2023-11-21T08:39:14;9.00;91.10
26254;DHT22;53339;51.378;0.094;2023-11-21T08:41:43;9.00;91.00
26254;DHT22;53339;51.378;0.094;2023-11-21T08:44:11;9.10;91.00
26254;DHT22;53339;51.378;0.094;2023-11-21T08:46:39;9.10;91.00
26254;DHT22;53339;51.378;0.094;2023-11-21T08:49:09;9.20;90.90
26254;DHT22;53339;51.378;0.094;2023-11-21T08:51:36;9.20;90.80
26254;DHT22;53339;51.378;0.094;2023-11-21T08:54:04;9.20;90.70
26254;DHT22;53339;51.378;0.094;2023-11-21T08:56:35;9.20;90.70
26254;DHT22;53339;51.378;0.094;2023-11-21T08:59:03;9.20;90.70
26254;DHT22;53339;51.378;0.094;2023-11-21T09:01:31;9.20;90.50
26254;DHT22;53339;51.378;0.094;2023-11-21T09:04:00;9.20;90.50
26254;DHT22;53339;51.378;0.094;2023-11-21T09:06:29;9.20;90.60
26254;DHT22;53339;51.378;0.094;2023-11-21T09:08:56;9.30;90.60
26254;DHT22;53339;51.378;0.094;2023-11-21T09:11:24;9.30;90.50
26254;DHT22;53339;51.378;0.094;2023-11-21T09:13:53;9.30;90.40
26254;DHT22;53339;51.378;0.094;2023-11-21T09:16:21;9.30;90.50
26254;DHT22;53339;51.378;0.094;2023-11-21T09:18:49;9.40;90.60
26254;DHT22;53339;51.378;0.094;2023-11-21T09:21:17;9.40;90.60
26254;DHT22;53339;51.378;0.094;2023-11-21T09:23:45;9.40;90.50
26254;DHT22;53339;51.378;0.094;2023-11-21T09:26:13;9.40;90.50
26254;DHT22;53339;51.378;0.094;2023-11-21T09:28:43;9.40;90.50
26254;DHT22;53339;51.378;0.094;2023-11-21T09:31:14;9.40;90.40
26254;DHT22;53339;51.378;0.094;2023-11-21T09:33:43;9.40;90.40
26254;DHT22;53339;51.378;0.094;2023-11-21T09:36:12;9.40;90.40
26254;DHT22;53339;51.378;0.094;2023-11-21T09:38:43;9.40;90.50
26254;DHT22;53339;51.378;0.094;2023-11-21T09:41:21;9.50;90.50
26254;DHT22;53339;51.378;0.094;2023-11-21T09:43:55;9.40;90.40
26254;DHT22;53339;51.378;0.094;2023-11-21T09:46:25;9.50;90.50
26254;DHT22;53339;51.378;0.094;2023-11-21T09:48:57;9.50;90.50
26254;DHT22;53339;51.378;0.094;2023-11-21T09:51:30;9.60;90.50
26254;DHT22;53339;51.378;0.094;2023-11-21T09:54:03;9.60;90.30
26254;DHT22;53339;51.378;0.094;2023-11-21T09:56:33;9.60;90.40
26254;DHT22;53339;51.378;0.094;2023-11-21T09:59:03;9.70;90.50
26254;DHT22;53339;51.378;0.094;2023-11-21T10:01:36;9.70;90.50
26254;DHT22;53339;51.378;0.094;2023-11-21T10:04:05;9.70;90.40
26254;DHT22;53339;51.378;0.094;2023-11-21T10:06:42;9.70;90.40
26254;DHT22;53339;51.378;0.094;2023-11-21T10:09:10;9.80;90.50
26254;DHT22;53339;51.378;0.094;2023-11-21T10:11:43;9.80;90.40
26254;DHT22;53339;51.378;0.094;2023-11-21T10:14:12;9.80;90.20
26254;DHT22;53339;51.378;0.094;2023-11-21T10:16:41;9.80;90.30
26254;DHT22;53339;51.378;0.094;2023-11-21T10:19:12;9.90;90.30
26254;DHT22;53339;51.378;0.094;2023-11-21T10:21:43;9.90;90.30
26254;DHT22;53339;51.378;0.094;2023-11-21T10:24:11;9.90;90.20
26254;DHT22;53339;51.378;0.094;2023-11-21T10:26:40;9.90;90.30
26254;DHT22;53339;51.378;0.094;2023-11-21T10:29:14;9.90;90.40
26254;DHT22;53339;51.378;0.094;2023-11-21T10:31:44;9.90;90.30
26254;DHT22;53339;51.378;0.094;2023-11-21T10:34:17;9.90;90.10
26254;DHT22;53339;51.378;0.094;2023-11-21T10:36:46;9.90;90.30
26254;DHT22;53339;51.378;0.094;2023-11-21T10:39:16;9.90;90.40
26254;DHT22;53339;51.378;0.094;2023-11-21T10:41:48;10.00;90.40
26254;DHT22;53339;51.378;0.094;2023-11-21T10:44:17;10.00;90.00
26254;DHT22;53339;51.378;0.094;2023-11-21T10:46:50;10.00;90.20
26254;DHT22;53339;51.378;0.094;2023-11-21T10:49:19;10.10;90.40
26254;DHT22;53339;51.378;0.094;2023-11-21T10:51:47;10.10;90.40
26254;DHT22;53339;51.378;0.094;2023-11-21T10:54:20;10.10;90.20
26254;DHT22;53339;51.378;0.094;2023-11-21T10:56:58;10.10;90.30
26254;DHT22;53339;51.378;0.094;2023-11-21T10:59:29;10.10;90.40
26254;DHT22;53339;51.378;0.094;2023-11-21T11:01:58;10.10;90.40
26254;DHT22;53339;51.378;0.094;2023-11-21T11:04:28;10.10;90.10
26254;DHT22;53339;51.378;0.094;2023-11-21T11:07:03;10.10;90.20
26254;DHT22;53339;51.378;0.094;2023-11-21T11:09:32;10.20;90.30
26254;DHT22;53339;51.378;0.094;2023-11-21T11:12:04;10.20;90.40
26254;DHT22;53339;51.378;0.094;2023-11-21T11:14:33;10.20;90.10
26254;DHT22;53339;51.378;0.094;2023-11-21T11:17:02;10.20;90.10
26254;DHT22;53339;51.378;0.094;2023-11-21T11:19:31;10.30;90.20
26254;DHT22;53339;51.378;0.094;2023-11-21T11:27:52;10.30;90.20
26254;DHT22;53339;51.378;0.094;2023-11-21T11:33:39;10.40;90.30
26254;DHT22;53339;51.378;0.094;2023-11-21T11:38:52;10.40;90.30
26254;DHT22;53339;51.378;0.094;2023-11-21T11:41:30;10.40;90.20
26254;DHT22;53339;51.378;0.094;2023-11-21T11:44:02;10.50;90.20
26254;DHT22;53339;51.378;0.094;2023-11-21T11:46:43;10.40;89.90
26254;DHT22;53339;51.378;0.094;2023-11-21T11:49:54;10.50;90.10
26254;DHT22;53339;51.378;0.094;2023-11-21T11:55:03;10.50;90.10
26254;DHT22;53339;51.378;0.094;2023-11-21T11:57:32;10.60;90.10
26254;DHT22;53339;51.378;0.094;2023-11-21T12:00:18;10.60;90.30
26254;DHT22;53339;51.378;0.094;2023-11-21T12:02:54;10.70;90.40
26254;DHT22;53339;51.378;0.094;2023-11-21T12:05:25;10.60;90.10
26254;DHT22;53339;51.378;0.094;2023-11-21T12:08:05;10.60;90.10
26254;DHT22;53339;51.378;0.094;2023-11-21T12:10:36;10.60;90.20
26254;DHT22;53339;51.378;0.094;2023-11-21T12:13:08;10.70;90.30
26254;DHT22;53339;51.378;0.094;2023-11-21T12:15:38;10.70;89.90
26254;DHT22;53339;51.378;0.094;2023-11-21T12:18:07;10.60;89.90
26254;DHT22;53339;51.378;0.094;2023-11-21T12:20:36;10.60;90.00
26254;DHT22;53339;51.378;0.094;2023-11-21T12:23:07;10.60;90.10
26254;DHT22;53339;51.378;0.094;2023-11-21T12:25:36;10.70;90.10
26254;DHT22;53339;51.378;0.094;2023-11-21T12:28:04;10.70;90.10
26254;DHT22;53339;51.378;0.094;2023-11-21T12:30:36;10.70;90.10
26254;DHT22;53339;51.378;0.094;2023-11-21T12:33:06;10.70;90.10
26254;DHT22;53339;51.378;0.094;2023-11-21T12:35:36;10.80;89.90
26254;DHT22;53339;51.378;0.094;2023-11-21T12:38:05;10.70;89.70
26254;DHT22;53339;51.378;0.094;2023-11-21T12:40:33;10.70;89.90
26254;DHT22;53339;51.378;0.094;2023-11-21T12:43:02;10.70;90.00
26254;DHT22;53339;51.378;0.094;2023-11-21T12:45:31;10.80;89.90
26254;DHT22;53339;51.378;0.094;2023-11-21T12:48:01;10.70;89.70
26254;DHT22;53339;51.378;0.094;2023-11-21T12:50:35;10.70;89.80
26254;DHT22;53339;51.378;0.094;2023-11-21T12:53:09;10.70;90.00
26254;DHT22;53339;51.378;0.094;2023-11-21T12:55:40;10.80;90.00
26254;DHT22;53339;51.378;0.094;2023-11-21T12:58:10;10.80;89.90
26254;DHT22;53339;51.378;0.094;2023-11-21T13:00:40;10.80;89.90
26254;DHT22;53339;51.378;0.094;2023-11-21T13:03:11;10.80;90.10
26254;DHT22;53339;51.378;0.094;2023-11-21T13:05:48;10.80;90.00
26254;DHT22;53339;51.378;0.094;2023-11-21T13:08:23;10.80;89.60
26254;DHT22;53339;51.378;0.094;2023-11-21T13:10:53;10.80;89.90
26254;DHT22;53339;51.378;0.094;2023-11-21T13:13:23;10.80;90.00
26254;DHT22;53339;51.378;0.094;2023-11-21T13:16:00;10.90;89.90
26254;DHT22;53339;51.378;0.094;2023-11-21T13:18:35;10.80;89.60
26254;DHT22;53339;51.378;0.094;2023-11-21T13:21:05;10.80;89.80
26254;DHT22;53339;51.378;0.094;2023-11-21T13:23:43;10.90;90.00
26254;DHT22;53339;51.378;0.094;2023-11-21T13:26:13;10.90;90.00
26254;DHT22;53339;51.378;0.094;2023-11-21T13:28:42;10.90;89.70
26254;DHT22;53339;51.378;0.094;2023-11-21T13:31:14;10.90;89.90
26254;DHT22;53339;51.378;0.094;2023-11-21T13:33:58;10.80;90.00
26254;DHT22;53339;51.378;0.094;2023-11-21T13:36:32;10.80;90.00
26254;DHT22;53339;51.378;0.094;2023-11-21T13:39:03;10.80;89.80
26254;DHT22;53339;51.378;0.094;2023-11-21T13:41:35;10.70;90.00
26254;DHT22;53339;51.378;0.094;2023-11-21T13:44:05;10.70;90.20
26254;DHT22;53339;51.378;0.094;2023-11-21T13:46:52;10.70;90.20
26254;DHT22;53339;51.378;0.094;2023-11-21T13:49:20;10.60;90.10
26254;DHT22;53339;51.378;0.094;2023-11-21T13:51:49;10.60;90.30
26254;DHT22;53339;51.378;0.094;2023-11-21T13:54:20;10.70;90.50
26254;DHT22;53339;51.378;0.094;2023-11-21T13:56:51;10.70;90.50
26254;DHT22;53339;51.378;0.094;2023-11-21T13:59:19;10.60;90.40
26254;DHT22;53339;51.378;0.094;2023-11-21T14:01:53;10.60;90.50
26254;DHT22;53339;51.378;0.094;2023-11-21T14:04:24;10.60;90.60
26254;DHT22;53339;51.378;0.094;2023-11-21T14:06:59;10.60;90.60
26254;DHT22;53339;51.378;0.094;2023-11-21T14:09:28;10.60;90.50
26254;DHT22;53339;51.378;0.094;2023-11-21T14:12:11;10.50;90.50
26254;DHT22;53339;51.378;0.094;2023-11-21T14:14:42;10.50;90.60
26254;DHT22;53339;51.378;0.094;2023-11-21T14:17:11;10.50;90.60
26254;DHT22;53339;51.378;0.094;2023-11-21T14:19:38;10.40;90.50
26254;DHT22;53339;51.378;0.094;2023-11-21T14:22:10;10.40;90.60
26254;DHT22;53339;51.378;0.094;2023-11-21T14:24:39;10.40;90.60
26254;DHT22;53339;51.378;0.094;2023-11-21T14:27:13;10.40;90.60
26254;DHT22;53339;51.378;0.094;2023-11-21T14:29:42;10.20;90.50
26254;DHT22;53339;51.378;0.094;2023-11-21T14:32:12;10.20;90.60
26254;DHT22;53339;51.378;0.094;2023-11-21T14:34:42;10.20;90.70
26254;DHT22;53339;51.378;0.094;2023-11-21T14:37:13;10.20;90.70
26254;DHT22;53339;51.378;0.094;2023-11-21T14:39:41;10.20;90.60
26254;DHT22;53339;51.378;0.094;2023-11-21T14:42:13;10.20;90.70
26254;DHT22;53339;51.378;0.094;2023-11-21T14:44:43;10.20;90.80
26254;DHT22;53339;51.378;0.094;2023-11-21T14:47:16;10.20;90.80
26254;DHT22;53339;51.378;0.094;2023-11-21T14:49:45;10.10;90.70
26254;DHT22;53339;51.378;0.094;2023-11-21T14:52:24;10.10;90.60
26254;DHT22;53339;51.378;0.094;2023-11-21T14:55:03;10.10;90.70
26254;DHT22;53339;51.378;0.094;2023-11-21T14:57:49;10.10;90.80
26254;DHT22;53339;51.378;0.094;2023-11-21T15:00:19;10.10;90.70
26254;DHT22;53339;51.378;0.094;2023-11-21T15:03:19;10.10;90.60
26254;DHT22;53339;51.378;0.094;2023-11-21T15:06:13;10.20;90.70
26254;DHT22;53339;51.378;0.094;2023-11-21T15:08:51;10.20;90.60
26254;DHT22;53339;51.378;0.094;2023-11-21T15:11:35;10.20;90.50
26254;DHT22;53339;51.378;0.094;2023-11-21T15:14:04;10.20;90.40
26254;DHT22;53339;51.378;0.094;2023-11-21T15:16:36;10.20;90.40
26254;DHT22;53339;51.378;0.094;2023-11-21T15:19:08;10.10;90.30
26254;DHT22;53339;51.378;0.094;2023-11-21T15:21:36;10.10;90.20
26254;DHT22;53339;51.378;0.094;2023-11-21T15:24:04;10.00;90.20
26254;DHT22;53339;51.378;0.094;2023-11-21T15:26:33;10.00;90.30
26254;DHT22;53339;51.378;0.094;2023-11-21T15:29:01;10.00;90.30
26254;DHT22;53339;51.378;0.094;2023-11-21T15:31:29;9.90;90.10
26254;DHT22;53339;51.378;0.094;2023-11-21T15:33:57;9.90;90.10
26254;DHT22;53339;51.378;0.094;2023-11-21T15:36:27;9.90;90.20
26254;DHT22;53339;51.378;0.094;2023-11-21T15:38:55;9.90;90.20
26254;DHT22;53339;51.378;0.094;2023-11-21T15:41:23;9.90;90.00
26254;DHT22;53339;51.378;0.094;2023-11-21T15:43:51;9.80;90.10
26254;DHT22;53339;51.378;0.094;2023-11-21T15:46:18;9.90;90.10
26254;DHT22;53339;51.378;0.094;2023-11-21T15:48:46;9.80;90.00
26254;DHT22;53339;51.378;0.094;2023-11-21T15:51:20;9.80;89.90
26254;DHT22;53339;51.378;0.094;2023-11-21T15:53:50;9.80;89.80
26254;DHT22;53339;51.378;0.094;2023-11-21T15:56:22;9.80;89.80
26254;DHT22;53339;51.378;0.094;2023-11-21T15:58:50;9.80;89.80
26254;DHT22;53339;51.378;0.094;2023-11-21T16:01:18;9.70;89.50
26254;DHT22;53339;51.378;0.094;2023-11-21T16:03:46;9.70;89.60
26254;DHT22;53339;51.378;0.094;2023-11-21T16:06:16;9.70;89.60